createdAt,value
2022-09-04T00:00:19.124Z,1.90
2022-09-04T00:03:13.452Z,2.13
2022-09-04T00:05:46.676Z,1.95
2022-09-04T00:08:34.532Z,2.30
2022-09-04T00:11:26.021Z,2.22
2022-09-04T00:13:58.155Z,1.98
2022-09-04T00:16:46.516Z,2.42
2022-09-04T00:19:21.999Z,2.42
2022-09-04T00:22:00.600Z,2.30
2022-09-04T00:24:42.805Z,2.42
2022-09-04T00:27:28.341Z,2.38
2022-09-04T00:29:59.799Z,2.28
2022-09-04T00:32:49.777Z,2.55
2022-09-04T00:35:32.389Z,2.80
2022-09-04T00:38:23.171Z,2.65
2022-09-04T00:41:02.192Z,2.72
2022-09-04T00:43:43.456Z,2.50
2022-09-04T00:46:47.695Z,2.90
2022-09-04T00:49:32.451Z,2.67
2022-09-04T00:52:36.583Z,2.80
2022-09-04T00:55:39.475Z,2.45
2022-09-04T00:58:24.543Z,2.72
2022-09-04T01:00:55.778Z,2.60
2022-09-04T01:03:43.498Z,2.45
2022-09-04T01:06:17.310Z,2.83
2022-09-04T01:09:22.413Z,2.40
2022-09-04T01:12:12.018Z,2.42
2022-09-04T01:15:00.508Z,2.60
2022-09-04T01:17:40.778Z,2.70
2022-09-04T01:20:14.498Z,2.78
2022-09-04T01:23:20.381Z,2.53
2022-09-04T01:25:56.348Z,2.42
2022-09-04T01:28:39.689Z,2.35
2022-09-04T01:31:23.043Z,2.40
2022-09-04T01:34:25.765Z,2.80
2022-09-04T01:37:17.722Z,2.75
2022-09-04T01:39:50.366Z,2.70
2022-09-04T01:42:29.107Z,2.60
2022-09-04T01:44:55.636Z,2.60
2022-09-04T01:47:35.637Z,2.40
2022-09-04T01:50:10.444Z,2.67
2022-09-04T01:53:18.021Z,2.58
2022-09-04T01:56:19.211Z,2.53
2022-09-04T01:59:23.753Z,2.97
2022-09-04T02:01:54.409Z,3.03
2022-09-04T02:04:42.256Z,2.55
2022-09-04T02:07:23.875Z,2.35
2022-09-04T02:10:11.847Z,2.75
2022-09-04T02:12:53.565Z,3.20
2022-09-04T02:15:50.941Z,2.40
2022-09-04T02:18:35.973Z,2.58
2022-09-04T02:21:12.416Z,2.38
2022-09-04T02:23:51.416Z,2.80
2022-09-04T02:26:27.381Z,2.40
2022-09-04T02:29:08.602Z,2.63
2022-09-04T02:31:41.010Z,3.33
2022-09-04T02:34:17.783Z,2.65
2022-09-04T02:37:01.387Z,2.15
2022-09-04T02:39:50.315Z,2.70
2022-09-04T02:42:39.800Z,2.65
2022-09-04T02:45:30.036Z,2.50
2022-09-04T02:48:30.905Z,2.40
2022-09-04T02:51:18.855Z,2.55
2022-09-04T02:54:04.269Z,2.65
2022-09-04T02:56:31.241Z,2.55
2022-09-04T02:59:14.968Z,2.45
2022-09-04T03:01:59.100Z,2.58
2022-09-04T03:04:37.657Z,2.40
2022-09-04T03:07:17.968Z,2.33
2022-09-04T03:09:54.173Z,2.65
2022-09-04T03:12:36.725Z,3.00
2022-09-04T03:15:14.014Z,2.67
2022-09-04T03:18:17.177Z,2.70
2022-09-04T03:20:52.786Z,2.63
2022-09-04T03:23:46.109Z,2.47
2022-09-04T03:26:21.518Z,2.85
2022-09-04T03:29:02.093Z,2.58
2022-09-04T03:31:50.887Z,2.22
2022-09-04T03:34:28.747Z,2.75
2022-09-04T03:37:04.440Z,3.22
2022-09-04T03:39:58.211Z,2.30
2022-09-04T03:42:50.816Z,2.75
2022-09-04T03:45:29.281Z,2.60
2022-09-04T03:48:26.390Z,2.78
2022-09-04T03:51:17.838Z,2.72
2022-09-04T03:53:57.641Z,3.40
2022-09-04T03:56:59.967Z,2.90
2022-09-04T03:59:37.307Z,3.08
2022-09-04T04:02:18.893Z,2.63
2022-09-04T04:05:14.252Z,2.85
2022-09-04T04:08:05.931Z,2.95
2022-09-04T04:11:10.485Z,2.97
2022-09-04T04:13:57.254Z,2.75
2022-09-04T04:17:06.539Z,3.20
2022-09-04T04:20:02.998Z,3.30
2022-09-04T04:22:50.849Z,3.33
2022-09-04T04:25:55.342Z,2.95
2022-09-04T04:28:47.827Z,3.72
2022-09-04T04:32:10.325Z,3.33
2022-09-04T04:35:08.335Z,4.10
2022-09-04T04:37:50.195Z,3.70
2022-09-04T04:40:41.092Z,3.67
2022-09-04T04:43:29.647Z,3.85
2022-09-04T04:46:22.918Z,3.90
2022-09-04T04:48:52.276Z,4.20
2022-09-04T04:54:13.061Z,5.05
2022-09-04T04:57:05.043Z,3.63
2022-09-04T05:00:06.119Z,4.00
2022-09-04T05:02:43.053Z,4.72
2022-09-04T05:05:49.889Z,3.63
2022-09-04T05:09:05.223Z,4.50
2022-09-04T05:11:43.432Z,4.85
2022-09-04T05:14:41.235Z,4.00
2022-09-04T05:17:32.083Z,4.05
2022-09-04T05:20:14.044Z,3.47
2022-09-04T05:22:47.540Z,4.28
2022-09-04T05:25:20.273Z,4.50
2022-09-04T05:28:05.055Z,4.38
2022-09-04T05:30:37.913Z,5.18
2022-09-04T05:33:27.268Z,4.70
2022-09-04T05:36:16.230Z,5.18
2022-09-04T05:39:07.961Z,5.00
2022-09-04T05:42:07.943Z,5.82
2022-09-04T05:45:04.798Z,5.28
2022-09-04T05:47:52.377Z,5.30
2022-09-04T05:50:37.888Z,5.30
2022-09-04T05:53:18.200Z,5.70
2022-09-04T05:56:03.527Z,5.38
2022-09-04T05:58:50.405Z,4.88
2022-09-04T06:01:51.989Z,5.25
2022-09-04T06:04:37.849Z,4.82
2022-09-04T06:07:15.950Z,5.28
2022-09-04T06:10:04.917Z,5.03
2022-09-04T06:12:46.330Z,5.90
2022-09-04T06:15:26.652Z,5.35
2022-09-04T06:18:02.731Z,6.25
2022-09-04T06:20:53.972Z,6.00
2022-09-04T06:23:29.613Z,5.40
2022-09-04T06:26:07.345Z,6.18
2022-09-04T06:29:00.486Z,7.43
2022-09-04T06:32:02.971Z,8.75
2022-09-04T06:35:04.768Z,10.32
2022-09-04T06:37:56.351Z,8.38
2022-09-04T06:40:42.522Z,8.40
2022-09-04T06:43:37.901Z,8.02
2022-09-04T06:46:33.843Z,8.98
2022-09-04T06:49:08.526Z,9.65
2022-09-04T06:52:12.938Z,8.88
2022-09-04T06:55:12.837Z,9.48
2022-09-04T06:58:05.253Z,9.52
2022-09-04T07:00:53.285Z,8.80
2022-09-04T07:03:51.882Z,9.38
2022-09-04T07:07:01.807Z,9.63
2022-09-04T07:09:30.497Z,9.40
2022-09-04T07:12:30.149Z,9.55
2022-09-04T07:15:27.120Z,9.77
2022-09-04T07:18:21.981Z,9.95
2022-09-04T07:21:02.188Z,10.70
2022-09-04T07:23:41.302Z,11.75
2022-09-04T07:29:11.310Z,10.90
2022-09-04T07:31:55.198Z,11.82
2022-09-04T07:34:39.363Z,13.73
2022-09-04T07:37:27.060Z,14.85
2022-09-04T07:40:17.173Z,15.27
2022-09-04T07:42:55.900Z,13.13
2022-09-04T07:45:51.037Z,12.57
2022-09-04T07:48:30.668Z,14.77
2022-09-04T07:51:16.802Z,14.65
2022-09-04T07:54:01.204Z,16.95
2022-09-04T07:57:11.740Z,15.15
2022-09-04T08:00:10.854Z,16.30
2022-09-04T08:03:11.829Z,17.23
2022-09-04T08:06:17.165Z,18.20
2022-09-04T08:09:33.149Z,17.92
2022-09-04T08:15:22.049Z,16.80
2022-09-04T08:18:08.981Z,17.35
2022-09-04T08:24:26.428Z,18.98
2022-09-04T08:27:14.499Z,20.13
2022-09-04T08:30:31.107Z,18.93
2022-09-04T08:33:19.130Z,20.08
2022-09-04T08:36:29.384Z,19.67
2022-09-04T08:39:08.668Z,18.40
2022-09-04T08:41:55.634Z,15.93
2022-09-04T08:48:11.264Z,14.95
2022-09-04T08:54:06.830Z,14.43
2022-09-04T08:57:14.845Z,13.20
2022-09-04T09:00:13.624Z,13.20
2022-09-04T09:02:52.023Z,13.52
2022-09-04T09:06:03.712Z,12.70
2022-09-04T09:12:23.248Z,11.95
2022-09-04T09:15:28.550Z,11.20
2022-09-04T09:25:01.225Z,10.20
2022-09-04T09:28:08.107Z,9.15
2022-09-04T09:31:10.891Z,8.80
2022-09-04T09:34:11.422Z,9.40
2022-09-04T09:37:02.954Z,8.82
2022-09-04T09:39:59.932Z,7.68
2022-09-04T09:43:30.022Z,7.20
2022-09-04T09:46:14.086Z,7.45
2022-09-04T09:49:28.449Z,6.63
2022-09-04T09:52:40.444Z,6.53
2022-09-04T09:55:42.638Z,5.97
2022-09-04T10:05:17.146Z,5.93
2022-09-04T10:08:07.498Z,5.10
2022-09-04T10:11:08.661Z,5.40
2022-09-04T10:14:16.854Z,5.93
2022-09-04T10:17:14.957Z,5.18
2022-09-04T10:19:51.421Z,6.30
2022-09-04T10:22:47.981Z,5.20
2022-09-04T10:25:54.908Z,5.28
2022-09-04T10:28:30.089Z,6.13
2022-09-04T10:31:23.857Z,5.28
2022-09-04T10:34:36.115Z,5.88
2022-09-04T10:37:36.232Z,5.57
2022-09-04T10:40:45.317Z,5.10
2022-09-04T10:43:22.394Z,5.90
2022-09-04T10:46:20.658Z,4.32
2022-09-04T10:49:27.385Z,4.32
2022-09-04T10:52:24.669Z,3.75
2022-09-04T10:55:36.740Z,4.07
2022-09-04T10:58:39.557Z,5.05
2022-09-04T11:01:36.934Z,4.80
2022-09-04T11:04:14.497Z,4.50
2022-09-04T11:07:10.094Z,3.72
2022-09-04T11:10:34.507Z,3.40
2022-09-04T11:13:31.600Z,3.47
2022-09-04T11:16:32.698Z,3.45
2022-09-04T11:19:25.174Z,2.90
2022-09-04T11:22:15.520Z,2.90
2022-09-04T11:25:17.055Z,2.80
2022-09-04T11:34:54.809Z,2.20
2022-09-04T11:41:05.818Z,1.97
2022-09-04T11:50:05.608Z,1.90
2022-09-04T11:53:20.808Z,1.67
2022-09-04T11:56:11.872Z,1.70
2022-09-04T11:59:21.759Z,1.83
2022-09-04T12:02:00.208Z,1.52
2022-09-04T12:08:07.375Z,2.25
2022-09-04T12:11:11.772Z,2.40
2022-09-04T12:13:47.774Z,2.45
2022-09-04T12:16:52.772Z,2.53
2022-09-04T12:19:44.462Z,3.10
2022-09-04T12:22:51.711Z,2.80
2022-09-04T12:25:39.854Z,2.85
2022-09-04T12:28:29.295Z,2.20
2022-09-04T12:31:11.238Z,2.15
2022-09-04T12:34:25.786Z,2.10
2022-09-04T12:37:20.524Z,2.38
2022-09-04T12:40:17.041Z,1.90
2022-09-04T12:43:01.406Z,2.20
2022-09-04T12:45:45.255Z,2.10
2022-09-04T12:48:23.825Z,2.05
2022-09-04T12:51:26.420Z,2.00
2022-09-04T12:54:21.019Z,1.80
2022-09-04T12:57:15.094Z,1.70
2022-09-04T13:00:05.864Z,2.15
2022-09-04T13:02:50.217Z,1.63
2022-09-04T13:05:53.087Z,2.08
2022-09-04T13:08:26.168Z,2.00
2022-09-04T13:14:37.280Z,1.48
2022-09-04T13:17:15.228Z,1.73
2022-09-04T13:20:09.028Z,1.58
2022-09-04T13:23:07.016Z,1.80
2022-09-04T13:29:26.720Z,1.75
2022-09-04T13:32:13.812Z,1.83
2022-09-04T13:35:10.293Z,1.70
2022-09-04T13:38:15.833Z,1.80
2022-09-04T13:41:30.173Z,2.00
2022-09-04T13:44:15.927Z,1.30
2022-09-04T13:47:16.404Z,1.30
2022-09-04T13:50:15.950Z,1.90
2022-09-04T13:53:07.069Z,1.85
2022-09-04T13:55:38.556Z,1.38
2022-09-04T13:58:53.726Z,1.40
2022-09-04T14:01:29.626Z,1.35
2022-09-04T14:04:10.777Z,1.40
2022-09-04T14:06:59.571Z,1.33
2022-09-04T14:09:33.775Z,1.80
2022-09-04T14:19:15.726Z,1.38
2022-09-04T14:32:18.753Z,1.02
2022-09-04T14:38:46.920Z,1.35
2022-09-04T14:41:34.085Z,1.20
2022-09-04T14:44:47.768Z,1.08
2022-09-04T14:47:40.655Z,1.30
2022-09-04T14:50:14.700Z,1.10
2022-09-04T14:52:59.896Z,1.00
2022-09-04T14:55:35.739Z,1.05
2022-09-04T14:58:45.209Z,1.10
2022-09-04T15:01:27.960Z,1.27
2022-09-04T15:10:53.223Z,1.42
2022-09-04T15:13:36.183Z,0.93
2022-09-04T15:16:40.045Z,1.10
2022-09-04T15:19:51.595Z,0.98
2022-09-04T15:26:10.507Z,1.00
2022-09-04T15:29:03.762Z,0.90
2022-09-04T15:42:13.434Z,0.80
2022-09-04T15:57:51.569Z,0.95
2022-09-04T16:00:33.745Z,1.10
2022-09-04T16:04:05.157Z,1.05
2022-09-04T16:06:53.264Z,1.15
2022-09-04T16:09:54.918Z,2.42
2022-09-04T16:12:47.412Z,1.60
2022-09-04T16:16:11.557Z,1.10
2022-09-04T16:19:10.078Z,1.00
2022-09-04T16:22:09.705Z,1.33
2022-09-04T16:24:47.725Z,1.27
2022-09-04T16:30:15.011Z,1.10
2022-09-04T16:32:53.383Z,1.05
2022-09-04T16:39:30.859Z,1.10
2022-09-04T16:42:49.973Z,1.20
2022-09-04T16:52:16.998Z,1.20
2022-09-04T16:54:52.921Z,1.10
2022-09-04T16:57:47.443Z,1.30
2022-09-04T17:00:18.743Z,1.30
2022-09-04T17:02:51.087Z,1.08
2022-09-04T17:05:34.651Z,1.05
2022-09-04T17:08:20.342Z,1.17
2022-09-04T17:14:28.329Z,1.42
2022-09-04T17:17:30.608Z,1.20
2022-09-04T17:20:14.891Z,1.40
2022-09-04T17:29:22.446Z,1.10
2022-09-04T17:29:34.604Z,1.20
2022-09-04T17:40:43.137Z,1.83
2022-09-04T17:41:31.364Z,1.30
2022-09-04T17:42:08.435Z,1.50
2022-09-04T17:48:02.370Z,1.83
2022-09-04T17:50:29.217Z,1.52
2022-09-04T17:53:14.667Z,1.52
2022-09-04T17:56:38.138Z,1.30
2022-09-04T17:59:14.518Z,1.27
2022-09-04T18:02:10.129Z,1.60
2022-09-04T18:04:47.096Z,1.70
2022-09-04T18:08:07.195Z,1.92
2022-09-04T18:10:40.271Z,1.92
2022-09-04T18:13:47.634Z,2.42
2022-09-04T18:17:12.068Z,2.67
2022-09-04T18:19:43.859Z,2.33
2022-09-04T18:22:33.324Z,2.33
2022-09-04T18:25:20.135Z,2.10
2022-09-04T18:28:21.886Z,2.30
2022-09-04T18:37:05.307Z,5.07
2022-09-04T18:37:21.858Z,3.45
2022-09-04T18:37:44.246Z,4.97
2022-09-04T18:40:12.520Z,3.45
2022-09-04T18:50:36.803Z,5.55
2022-09-04T18:50:39.337Z,3.83
2022-09-04T18:50:43.937Z,6.95
2022-09-04T18:51:49.090Z,5.80
2022-09-04T18:54:28.906Z,4.60
2022-09-04T18:57:06.610Z,5.30
2022-09-04T18:59:54.943Z,4.70
2022-09-04T19:02:56.354Z,4.63
2022-09-04T19:05:32.960Z,4.03
2022-09-04T19:08:19.845Z,4.20
2022-09-04T19:10:54.121Z,4.50
2022-09-04T19:13:42.182Z,4.13
2022-09-04T19:16:29.090Z,4.63
2022-09-04T19:19:01.507Z,5.05
2022-09-04T19:21:58.130Z,3.90
2022-09-04T19:24:54.266Z,3.50
2022-09-04T19:27:28.322Z,3.70
2022-09-04T19:30:19.959Z,3.60
2022-09-04T19:32:59.633Z,3.95
2022-09-04T19:35:50.685Z,3.63
2022-09-04T19:46:04.359Z,3.67
2022-09-04T19:46:06.886Z,3.20
2022-09-04T19:46:11.593Z,2.88
2022-09-04T19:47:28.420Z,3.38
2022-09-04T19:53:22.274Z,3.13
2022-09-04T19:53:42.704Z,2.95
2022-09-04T19:56:31.061Z,3.90
2022-09-04T19:59:11.407Z,2.72
2022-09-04T20:02:02.829Z,2.67
2022-09-04T20:04:46.083Z,2.58
2022-09-04T20:07:29.387Z,2.80
2022-09-04T20:10:02.069Z,3.03
2022-09-04T20:12:50.863Z,2.80
2022-09-04T20:15:30.125Z,2.83
2022-09-04T20:18:11.601Z,3.45
2022-09-04T20:20:56.553Z,3.30
2022-09-04T20:23:38.869Z,3.08
2022-09-04T20:26:11.126Z,2.83
2022-09-04T20:29:12.932Z,3.03
2022-09-04T20:31:41.774Z,2.80
2022-09-04T20:34:27.035Z,3.08
2022-09-04T20:37:19.170Z,3.25
2022-09-04T20:40:15.678Z,3.40
2022-09-04T20:43:16.204Z,3.67
2022-09-04T20:52:41.756Z,3.75
2022-09-04T20:52:49.774Z,4.38
2022-09-04T20:52:58.064Z,3.22
2022-09-04T20:55:11.441Z,4.82
2022-09-04T21:03:10.524Z,4.63
2022-09-04T21:04:42.754Z,5.28
2022-09-04T21:07:39.726Z,5.57
2022-09-04T21:13:22.107Z,5.07
2022-09-04T21:16:01.005Z,4.60
2022-09-04T21:18:31.783Z,4.43
2022-09-04T21:21:38.425Z,4.55
2022-09-04T21:24:23.515Z,4.45
2022-09-04T21:27:21.116Z,4.05
2022-09-04T21:30:18.892Z,4.28
2022-09-04T21:33:28.544Z,4.38
2022-09-04T21:36:25.343Z,3.72
2022-09-04T21:38:57.441Z,3.85
2022-09-04T21:41:45.514Z,3.40
2022-09-04T21:44:24.374Z,23.27
2022-09-04T21:50:47.225Z,4.03
2022-09-04T21:53:58.713Z,3.80
2022-09-04T22:02:25.851Z,3.60
2022-09-04T22:15:00.277Z,3.20
2022-09-04T22:24:43.818Z,2.70
2022-09-04T22:28:08.149Z,2.75
2022-09-04T22:31:22.240Z,2.63
2022-09-04T22:34:17.526Z,2.60
2022-09-04T22:37:16.401Z,2.25
2022-09-04T22:39:52.222Z,2.35
2022-09-04T22:42:46.065Z,2.65
2022-09-04T22:49:29.346Z,2.42
2022-09-04T22:52:22.657Z,6.00
2022-09-04T22:55:23.061Z,2.50
2022-09-04T22:58:35.436Z,2.65
2022-09-04T23:04:50.929Z,2.33
2022-09-04T23:13:51.397Z,2.65
2022-09-04T23:14:20.602Z,2.30
2022-09-04T23:17:14.823Z,2.35
2022-09-04T23:26:31.401Z,2.55
2022-09-04T23:26:45.331Z,2.53
2022-09-04T23:27:04.996Z,2.30
2022-09-04T23:29:41.346Z,2.22
2022-09-04T23:32:44.621Z,2.63
2022-09-04T23:35:27.629Z,2.47
2022-09-04T23:38:13.945Z,2.60
2022-09-04T23:41:03.594Z,2.47
2022-09-04T23:44:25.804Z,2.13
2022-09-04T23:47:20.386Z,2.40
2022-09-04T23:50:18.062Z,2.20
2022-09-04T23:53:02.984Z,2.50
2022-09-04T23:55:50.658Z,2.55
2022-09-04T23:59:06.635Z,2.60
